createdAt,value
2019-01-31T00:00:13.492Z,2.31
2019-01-31T00:03:04.002Z,2.28
2019-01-31T00:05:47.532Z,2.32
2019-01-31T00:08:46.428Z,2.24
2019-01-31T00:11:57.324Z,2.32
2019-01-31T00:14:47.915Z,2.33
2019-01-31T00:17:40.366Z,2.37
2019-01-31T00:20:44.612Z,2.24
2019-01-31T00:23:45.057Z,2.35
2019-01-31T00:26:25.111Z,2.22
2019-01-31T00:29:03.454Z,2.38
2019-01-31T00:31:51.095Z,2.18
2019-01-31T00:34:41.241Z,2.18
2019-01-31T00:37:25.305Z,2.16
2019-01-31T00:40:19.503Z,2.42
2019-01-31T00:43:17.071Z,2.27
2019-01-31T00:46:24.252Z,2.05
2019-01-31T00:49:28.108Z,2.09
2019-01-31T00:52:33.454Z,1.99
2019-01-31T00:55:19.095Z,2.07
2019-01-31T00:58:24.748Z,1.98
2019-01-31T01:01:42.204Z,1.96
2019-01-31T01:04:50.547Z,2.00
2019-01-31T01:08:00.417Z,1.99
2019-01-31T01:11:17.877Z,1.95
2019-01-31T01:14:16.134Z,1.85
2019-01-31T01:17:19.856Z,1.86
2019-01-31T01:20:15.344Z,1.80
2019-01-31T01:23:14.531Z,1.89
2019-01-31T01:26:17.306Z,1.89
2019-01-31T01:29:23.714Z,2.02
2019-01-31T01:32:18.002Z,1.99
2019-01-31T01:35:04.692Z,2.04
2019-01-31T01:38:17.128Z,2.00
2019-01-31T01:41:00.381Z,2.08
2019-01-31T01:44:05.598Z,2.19
2019-01-31T01:46:49.342Z,2.02
2019-01-31T01:49:31.011Z,2.26
2019-01-31T01:52:33.406Z,2.22
2019-01-31T01:55:45.346Z,2.03
2019-01-31T01:58:34.685Z,1.88
2019-01-31T02:01:40.737Z,2.04
2019-01-31T02:04:22.659Z,2.07
2019-01-31T02:07:24.567Z,1.98
2019-01-31T02:10:22.038Z,1.75
2019-01-31T02:13:28.980Z,1.83
2019-01-31T02:16:46.043Z,1.74
2019-01-31T02:19:54.566Z,1.62
2019-01-31T02:22:33.749Z,1.52
2019-01-31T02:25:15.308Z,1.69
2019-01-31T02:28:14.991Z,1.60
2019-01-31T02:31:14.987Z,1.63
2019-01-31T02:34:20.164Z,1.45
2019-01-31T02:37:14.359Z,1.60
2019-01-31T02:40:06.371Z,1.51
2019-01-31T02:42:47.400Z,1.51
2019-01-31T02:45:35.639Z,1.38
2019-01-31T02:48:24.959Z,1.52
2019-01-31T02:51:32.327Z,1.41
2019-01-31T02:54:16.813Z,1.43
2019-01-31T02:57:07.407Z,1.52
2019-01-31T03:00:19.203Z,1.46
2019-01-31T03:03:27.623Z,1.39
2019-01-31T03:06:17.333Z,1.44
2019-01-31T03:09:11.996Z,1.39
2019-01-31T03:12:16.005Z,1.19
2019-01-31T03:14:54.505Z,1.34
2019-01-31T03:17:50.041Z,1.36
2019-01-31T03:20:40.972Z,1.48
2019-01-31T03:23:58.688Z,1.30
2019-01-31T03:26:50.699Z,1.26
2019-01-31T03:29:59.468Z,1.13
2019-01-31T03:33:03.143Z,1.20
2019-01-31T03:36:11.645Z,0.90
2019-01-31T03:38:48.654Z,1.10
2019-01-31T03:41:44.966Z,1.10
2019-01-31T03:44:40.724Z,1.05
2019-01-31T03:47:21.089Z,1.11
2019-01-31T03:50:23.358Z,1.01
2019-01-31T03:53:27.100Z,0.89
2019-01-31T03:56:35.990Z,0.85
2019-01-31T03:59:21.954Z,1.01
2019-01-31T04:02:27.729Z,1.01
2019-01-31T04:05:59.976Z,1.20
2019-01-31T04:08:29.756Z,0.91
2019-01-31T04:11:01.466Z,1.23
2019-01-31T04:13:31.447Z,1.17
2019-01-31T04:16:01.435Z,1.30
2019-01-31T04:18:31.670Z,0.99
2019-01-31T04:21:03.212Z,1.16
2019-01-31T04:23:33.619Z,1.12
2019-01-31T04:26:07.620Z,0.98
2019-01-31T04:28:38.083Z,1.10
2019-01-31T04:31:07.875Z,1.13
2019-01-31T04:33:37.626Z,1.18
2019-01-31T04:36:07.976Z,1.15
2019-01-31T04:38:37.709Z,1.28
2019-01-31T04:41:07.484Z,1.27
2019-01-31T04:43:37.936Z,1.44
2019-01-31T04:46:07.721Z,1.44
2019-01-31T04:48:37.762Z,1.44
2019-01-31T04:51:08.225Z,1.43
2019-01-31T04:53:38.403Z,1.34
2019-01-31T04:56:08.800Z,1.47
2019-01-31T04:58:38.665Z,1.38
2019-01-31T05:01:08.598Z,1.51
2019-01-31T05:03:39.048Z,1.46
2019-01-31T05:06:09.191Z,1.33
2019-01-31T05:08:39.600Z,1.41
2019-01-31T05:11:10.296Z,1.41
2019-01-31T05:13:40.446Z,1.41
2019-01-31T05:16:10.784Z,1.56
2019-01-31T05:18:40.805Z,1.40
2019-01-31T05:21:11.415Z,1.50
2019-01-31T05:23:41.656Z,1.54
2019-01-31T05:26:11.790Z,1.59
2019-01-31T05:28:41.886Z,1.58
2019-01-31T05:31:12.917Z,1.47
2019-01-31T05:33:42.723Z,1.44
2019-01-31T05:36:12.804Z,1.29
2019-01-31T05:38:43.095Z,1.26
2019-01-31T05:41:13.531Z,1.41
2019-01-31T05:43:43.937Z,1.47
2019-01-31T05:46:14.049Z,1.41
2019-01-31T05:48:44.466Z,1.24
2019-01-31T05:51:14.892Z,1.33
2019-01-31T05:53:45.009Z,1.46
2019-01-31T05:56:14.522Z,1.35
2019-01-31T05:58:44.954Z,1.21
2019-01-31T06:01:15.780Z,1.38
2019-01-31T06:03:45.864Z,1.21
2019-01-31T06:06:16.473Z,1.16
2019-01-31T06:08:46.339Z,1.21
2019-01-31T06:11:16.767Z,1.31
2019-01-31T06:13:47.187Z,1.14
2019-01-31T06:16:17.002Z,0.96
2019-01-31T06:18:46.828Z,0.97
2019-01-31T06:21:16.650Z,0.93
2019-01-31T06:23:46.644Z,0.97
2019-01-31T06:26:17.370Z,0.94
2019-01-31T06:28:47.711Z,0.94
2019-01-31T06:31:17.952Z,0.95
2019-01-31T06:33:47.777Z,0.74
2019-01-31T06:36:18.381Z,0.81
2019-01-31T06:38:48.781Z,0.94
2019-01-31T06:41:19.037Z,1.02
2019-01-31T06:43:49.307Z,1.18
2019-01-31T06:46:19.265Z,1.18
2019-01-31T06:48:49.008Z,0.81
2019-01-31T06:51:19.787Z,0.81
2019-01-31T06:53:49.679Z,0.77
2019-01-31T06:56:19.409Z,0.62
2019-01-31T06:58:49.678Z,0.91
2019-01-31T07:01:20.161Z,0.80
2019-01-31T07:03:50.359Z,0.80
2019-01-31T07:06:20.355Z,0.95
2019-01-31T07:08:50.865Z,1.03
2019-01-31T07:11:29.655Z,1.38
2019-01-31T07:13:54.773Z,1.30
2019-01-31T07:16:25.432Z,1.06
2019-01-31T07:18:55.692Z,1.05
2019-01-31T07:21:25.962Z,1.01
2019-01-31T07:23:56.216Z,0.95
2019-01-31T07:26:26.709Z,1.07
2019-01-31T07:28:57.155Z,1.05
2019-01-31T07:31:28.677Z,1.10
2019-01-31T07:33:58.462Z,0.96
2019-01-31T07:36:28.501Z,0.98
2019-01-31T07:38:58.833Z,0.94
2019-01-31T07:41:29.062Z,1.07
2019-01-31T07:43:59.389Z,1.36
2019-01-31T07:46:29.393Z,1.25
2019-01-31T07:48:59.693Z,1.48
2019-01-31T07:51:30.349Z,1.56
2019-01-31T07:54:00.940Z,1.63
2019-01-31T07:56:31.998Z,1.75
2019-01-31T07:59:01.995Z,1.63
2019-01-31T08:01:32.591Z,1.63
2019-01-31T08:04:03.640Z,2.04
2019-01-31T08:06:33.926Z,1.89
2019-01-31T08:09:05.150Z,1.92
2019-01-31T08:11:36.832Z,2.25
2019-01-31T08:14:07.767Z,2.70
2019-01-31T08:16:38.287Z,2.57
2019-01-31T08:19:09.493Z,2.25
2019-01-31T08:21:41.116Z,2.78
2019-01-31T08:24:11.366Z,3.00
2019-01-31T08:26:41.674Z,2.99
2019-01-31T08:29:11.855Z,2.97
2019-01-31T08:31:42.471Z,2.66
2019-01-31T08:34:13.255Z,2.30
2019-01-31T08:36:43.264Z,2.33
2019-01-31T08:39:14.049Z,2.64
2019-01-31T08:41:45.026Z,2.98
2019-01-31T08:44:21.006Z,3.16
2019-01-31T08:46:51.420Z,3.01
2019-01-31T08:49:23.212Z,3.17
2019-01-31T08:51:55.621Z,2.96
2019-01-31T08:54:26.703Z,3.08
2019-01-31T08:56:56.871Z,3.37
2019-01-31T08:59:27.458Z,3.06
2019-01-31T09:01:59.021Z,2.89
2019-01-31T09:04:28.899Z,3.46
2019-01-31T09:06:59.399Z,3.49
2019-01-31T09:09:35.793Z,3.42
2019-01-31T09:12:14.961Z,3.42
2019-01-31T09:14:38.343Z,3.55
2019-01-31T09:17:09.190Z,3.41
2019-01-31T09:19:39.805Z,3.18
2019-01-31T09:22:35.080Z,3.24
2019-01-31T09:25:34.451Z,3.36
2019-01-31T09:28:24.019Z,4.16
2019-01-31T09:31:27.707Z,3.94
2019-01-31T09:34:26.989Z,4.17
2019-01-31T09:37:25.853Z,3.81
2019-01-31T09:40:17.191Z,4.60
2019-01-31T09:43:29.223Z,4.25
2019-01-31T09:46:27.878Z,4.27
2019-01-31T09:49:27.724Z,3.98
2019-01-31T09:52:35.549Z,4.57
2019-01-31T09:55:56.343Z,4.76
2019-01-31T09:58:37.217Z,4.16
2019-01-31T10:01:39.684Z,4.33
2019-01-31T10:05:01.001Z,4.69
2019-01-31T10:08:04.619Z,4.85
2019-01-31T10:11:09.635Z,5.04
2019-01-31T10:14:16.577Z,4.87
2019-01-31T10:17:27.243Z,4.76
2019-01-31T10:20:28.233Z,4.76
2019-01-31T10:23:25.663Z,4.68
2019-01-31T10:26:20.973Z,4.77
2019-01-31T10:29:11.932Z,4.84
2019-01-31T10:32:15.419Z,4.89
2019-01-31T10:35:29.254Z,4.33
2019-01-31T10:38:37.581Z,5.12
2019-01-31T10:41:37.071Z,6.01
2019-01-31T10:44:45.489Z,6.00
2019-01-31T10:47:34.803Z,5.02
2019-01-31T10:50:37.585Z,5.40
2019-01-31T10:53:58.309Z,5.19
2019-01-31T10:57:01.443Z,5.08
2019-01-31T11:00:21.393Z,5.20
2019-01-31T11:03:27.699Z,4.94
2019-01-31T11:06:24.552Z,5.80
2019-01-31T11:09:27.226Z,5.33
2019-01-31T11:13:00.806Z,5.43
2019-01-31T11:15:53.585Z,5.83
2019-01-31T11:18:46.028Z,5.72
2019-01-31T11:21:39.397Z,5.88
2019-01-31T11:24:27.413Z,6.26
2019-01-31T11:27:24.176Z,6.01
2019-01-31T11:30:32.391Z,6.28
2019-01-31T11:33:27.703Z,5.61
2019-01-31T11:36:49.246Z,6.46
2019-01-31T11:40:16.031Z,6.01
2019-01-31T11:43:11.876Z,5.50
2019-01-31T11:46:15.307Z,5.69
2019-01-31T11:48:52.950Z,5.55
2019-01-31T11:52:13.379Z,6.14
2019-01-31T11:55:17.426Z,6.37
2019-01-31T11:58:12.534Z,6.59
2019-01-31T12:00:42.834Z,6.73
2019-01-31T12:03:13.650Z,5.93
2019-01-31T12:05:45.210Z,6.17
2019-01-31T12:08:16.254Z,6.40
2019-01-31T12:10:46.659Z,6.00
2019-01-31T12:13:23.562Z,6.37
2019-01-31T12:15:50.944Z,6.45
2019-01-31T12:18:21.961Z,6.43
2019-01-31T12:20:52.279Z,6.92
2019-01-31T12:23:23.587Z,6.80
2019-01-31T12:26:02.755Z,6.26
2019-01-31T12:28:37.731Z,6.71
2019-01-31T12:31:10.342Z,5.88
2019-01-31T12:33:42.126Z,6.22
2019-01-31T12:36:12.117Z,6.01
2019-01-31T12:38:42.149Z,6.38
2019-01-31T12:41:12.437Z,6.83
2019-01-31T12:43:43.475Z,6.78
2019-01-31T12:46:14.206Z,6.70
2019-01-31T12:48:43.868Z,6.82
2019-01-31T12:51:14.863Z,5.87
2019-01-31T12:53:45.054Z,6.36
2019-01-31T12:56:14.847Z,6.19
2019-01-31T12:58:44.344Z,5.90
2019-01-31T13:01:14.378Z,6.34
2019-01-31T13:03:44.265Z,6.61
2019-01-31T13:06:14.171Z,6.35
2019-01-31T13:08:44.814Z,6.34
2019-01-31T13:11:15.167Z,6.36
2019-01-31T13:13:46.235Z,6.58
2019-01-31T13:16:16.390Z,6.47
2019-01-31T13:18:45.959Z,6.61
2019-01-31T13:21:15.556Z,6.72
2019-01-31T13:23:45.505Z,6.89
2019-01-31T13:26:17.216Z,6.19
2019-01-31T13:28:46.715Z,6.50
2019-01-31T13:31:16.477Z,6.47
2019-01-31T13:33:46.856Z,6.29
2019-01-31T13:36:17.316Z,5.96
2019-01-31T13:38:47.967Z,6.35
2019-01-31T13:41:20.604Z,5.93
2019-01-31T13:43:57.596Z,6.32
2019-01-31T13:46:24.015Z,6.02
2019-01-31T13:48:54.656Z,6.04
2019-01-31T13:51:24.230Z,6.12
2019-01-31T13:53:53.970Z,5.74
2019-01-31T13:56:24.001Z,6.00
2019-01-31T13:58:53.514Z,5.84
2019-01-31T14:01:23.208Z,5.77
2019-01-31T14:03:53.580Z,5.88
2019-01-31T14:06:23.990Z,6.06
2019-01-31T14:08:55.040Z,5.72
2019-01-31T14:11:25.495Z,5.35
2019-01-31T14:13:55.945Z,5.40
2019-01-31T14:16:25.720Z,4.93
2019-01-31T14:18:55.675Z,5.23
2019-01-31T14:21:30.293Z,5.19
2019-01-31T14:24:00.367Z,5.25
2019-01-31T14:26:33.760Z,5.34
2019-01-31T14:29:03.557Z,5.51
2019-01-31T14:31:33.802Z,4.98
2019-01-31T14:34:04.689Z,5.21
2019-01-31T14:36:34.201Z,5.10
2019-01-31T14:39:06.844Z,5.21
2019-01-31T14:41:37.315Z,5.10
2019-01-31T14:44:06.848Z,5.23
2019-01-31T14:46:37.068Z,5.07
2019-01-31T14:49:06.749Z,4.96
2019-01-31T14:51:37.310Z,5.14
2019-01-31T14:54:06.942Z,4.59
2019-01-31T14:56:37.024Z,4.71
2019-01-31T14:59:06.916Z,4.57
2019-01-31T15:01:37.636Z,4.57
2019-01-31T15:04:09.635Z,4.54
2019-01-31T15:06:40.999Z,4.43
2019-01-31T15:09:10.528Z,4.33
2019-01-31T15:11:40.314Z,4.38
2019-01-31T15:14:10.128Z,4.34
2019-01-31T15:16:39.862Z,4.49
2019-01-31T15:19:10.445Z,4.42
2019-01-31T15:21:40.292Z,4.27
2019-01-31T15:24:12.269Z,4.27
2019-01-31T15:26:41.889Z,4.04
2019-01-31T15:29:13.302Z,4.05
2019-01-31T15:31:43.926Z,3.99
2019-01-31T15:34:14.499Z,4.04
2019-01-31T15:36:45.102Z,4.12
2019-01-31T15:39:15.223Z,3.91
2019-01-31T15:41:45.188Z,3.94
2019-01-31T15:44:15.839Z,4.01
2019-01-31T15:46:45.336Z,3.85
2019-01-31T15:49:14.920Z,3.73
2019-01-31T15:51:44.899Z,3.49
2019-01-31T15:54:16.561Z,3.69
2019-01-31T15:56:48.475Z,3.47
2019-01-31T15:59:19.400Z,3.60
2019-01-31T16:01:49.526Z,3.59
2019-01-31T16:04:19.934Z,3.61
2019-01-31T16:06:49.955Z,3.65
2019-01-31T16:09:24.088Z,3.60
2019-01-31T16:11:53.634Z,3.65
2019-01-31T16:14:24.001Z,3.39
2019-01-31T16:16:55.024Z,3.37
2019-01-31T16:19:24.750Z,3.43
2019-01-31T16:21:54.294Z,3.47
2019-01-31T16:24:26.178Z,3.43
2019-01-31T16:26:55.739Z,3.31
2019-01-31T16:29:25.319Z,3.30
2019-01-31T16:31:54.859Z,3.24
2019-01-31T16:34:24.432Z,3.36
2019-01-31T16:36:54.318Z,3.33
2019-01-31T16:39:24.238Z,3.26
2019-01-31T16:41:53.791Z,3.23
2019-01-31T16:44:23.285Z,3.13
2019-01-31T16:46:53.084Z,3.16
2019-01-31T16:49:22.585Z,2.75
2019-01-31T16:51:52.124Z,2.75
2019-01-31T16:54:21.946Z,2.87
2019-01-31T16:56:51.550Z,2.93
2019-01-31T16:59:21.190Z,2.94
2019-01-31T17:01:50.801Z,2.86
2019-01-31T17:04:20.349Z,2.78
2019-01-31T17:06:49.961Z,2.69
2019-01-31T17:09:19.498Z,2.77
2019-01-31T17:11:49.291Z,2.75
2019-01-31T17:14:19.758Z,2.59
2019-01-31T17:16:49.285Z,2.56
2019-01-31T17:19:18.821Z,2.63
2019-01-31T17:21:48.543Z,2.50
2019-01-31T17:24:18.383Z,2.70
2019-01-31T17:26:48.033Z,2.47
2019-01-31T17:29:17.758Z,2.31
2019-01-31T17:31:47.357Z,2.41
2019-01-31T17:34:16.848Z,2.16
2019-01-31T17:36:46.640Z,2.10
2019-01-31T17:39:16.187Z,2.33
2019-01-31T17:41:45.782Z,2.52
2019-01-31T17:44:15.698Z,2.32
2019-01-31T17:46:45.501Z,2.15
2019-01-31T17:49:15.032Z,2.21
2019-01-31T17:51:44.620Z,2.26
2019-01-31T17:54:14.190Z,2.25
2019-01-31T17:56:43.666Z,2.21
2019-01-31T17:59:13.337Z,2.06
2019-01-31T18:01:43.258Z,2.22
2019-01-31T18:04:12.783Z,2.21
2019-01-31T18:06:42.370Z,1.97
2019-01-31T18:09:12.699Z,1.98
2019-01-31T18:11:42.202Z,2.01
2019-01-31T18:14:12.292Z,1.99
2019-01-31T18:16:42.079Z,1.98
2019-01-31T18:19:11.591Z,1.98
2019-01-31T18:21:41.068Z,1.86
2019-01-31T18:24:10.542Z,1.82
2019-01-31T18:26:40.087Z,1.62
2019-01-31T18:29:09.586Z,1.64
2019-01-31T18:31:39.270Z,1.74
2019-01-31T18:34:08.751Z,1.79
2019-01-31T18:36:38.225Z,1.97
2019-01-31T18:39:09.815Z,1.85
2019-01-31T18:41:39.515Z,1.96
2019-01-31T18:44:11.067Z,2.01
2019-01-31T18:46:40.887Z,1.82
2019-01-31T18:49:10.508Z,1.84
2019-01-31T18:51:40.746Z,1.78
2019-01-31T18:54:12.588Z,1.81
2019-01-31T18:56:42.331Z,1.69
2019-01-31T18:59:12.000Z,1.77
2019-01-31T19:01:41.926Z,1.66
2019-01-31T19:04:12.237Z,1.75
2019-01-31T19:06:42.242Z,1.66
2019-01-31T19:09:12.231Z,1.67
2019-01-31T19:11:41.916Z,1.60
2019-01-31T19:14:14.348Z,1.59
2019-01-31T19:16:43.856Z,1.56
2019-01-31T19:19:13.781Z,1.67
2019-01-31T19:21:43.325Z,1.67
2019-01-31T19:24:12.830Z,1.67
2019-01-31T19:26:42.378Z,1.67
2019-01-31T19:29:11.960Z,1.66
2019-01-31T19:31:41.542Z,1.75
2019-01-31T19:34:11.261Z,1.72
2019-01-31T19:36:40.833Z,1.67
2019-01-31T19:39:16.346Z,1.65
2019-01-31T19:41:46.160Z,1.60
2019-01-31T19:44:15.694Z,1.76
2019-01-31T19:46:45.774Z,1.69
2019-01-31T19:49:15.427Z,1.67
2019-01-31T19:51:45.456Z,1.52
2019-01-31T19:54:15.745Z,1.69
2019-01-31T19:56:47.041Z,1.57
2019-01-31T19:59:16.810Z,1.61
2019-01-31T20:01:46.440Z,1.79
2019-01-31T20:04:16.231Z,1.75
2019-01-31T20:06:46.378Z,1.68
2019-01-31T20:09:20.278Z,1.65
2019-01-31T20:11:49.822Z,1.66
2019-01-31T20:14:19.783Z,1.55
2019-01-31T20:16:49.452Z,1.57
2019-01-31T20:19:19.260Z,1.53
2019-01-31T20:21:48.834Z,1.50
2019-01-31T20:24:18.716Z,1.43
2019-01-31T20:26:48.636Z,1.54
2019-01-31T20:29:18.588Z,1.35
2019-01-31T20:31:48.261Z,1.46
2019-01-31T20:34:18.291Z,1.41
2019-01-31T20:36:47.907Z,1.40
2019-01-31T20:39:18.376Z,1.42
2019-01-31T20:41:54.238Z,1.42
2019-01-31T20:44:20.553Z,1.56
2019-01-31T20:46:50.206Z,1.42
2019-01-31T20:49:20.030Z,1.42
2019-01-31T20:51:49.946Z,1.34
2019-01-31T20:54:19.627Z,1.24
2019-01-31T20:56:51.256Z,1.47
2019-01-31T20:59:21.537Z,1.38
2019-01-31T21:01:51.162Z,1.30
2019-01-31T21:04:20.890Z,1.25
2019-01-31T21:06:50.455Z,1.27
2019-01-31T21:09:20.357Z,1.32
2019-01-31T21:11:50.090Z,1.34
2019-01-31T21:14:19.794Z,1.17
2019-01-31T21:16:51.967Z,1.40
2019-01-31T21:19:20.724Z,1.16
2019-01-31T21:21:50.237Z,1.21
2019-01-31T21:24:21.174Z,1.12
2019-01-31T21:26:50.784Z,1.13
2019-01-31T21:29:20.319Z,1.10
2019-01-31T21:31:49.889Z,1.06
2019-01-31T21:34:19.566Z,1.10
2019-01-31T21:36:49.232Z,1.03
2019-01-31T21:39:19.010Z,1.10
2019-01-31T21:41:48.598Z,1.09
2019-01-31T21:44:18.635Z,1.01
2019-01-31T21:46:48.187Z,1.12
2019-01-31T21:49:18.539Z,1.11
2019-01-31T21:51:48.612Z,1.05
2019-01-31T21:54:18.197Z,1.14
2019-01-31T21:56:48.027Z,1.09
2019-01-31T21:59:18.582Z,1.16
2019-01-31T22:01:48.140Z,1.07
2019-01-31T22:04:18.070Z,1.12
2019-01-31T22:06:48.335Z,1.12
2019-01-31T22:09:17.863Z,1.07
2019-01-31T22:11:47.726Z,1.16
2019-01-31T22:14:17.346Z,1.10
2019-01-31T22:16:46.916Z,1.07
2019-01-31T22:19:16.605Z,1.07
2019-01-31T22:21:46.770Z,1.10
2019-01-31T22:24:16.579Z,1.21
2019-01-31T22:26:46.203Z,1.07
2019-01-31T22:29:15.807Z,1.06
2019-01-31T22:31:45.883Z,0.99
2019-01-31T22:34:16.046Z,1.03
2019-01-31T22:36:45.753Z,1.12
2019-01-31T22:39:16.192Z,1.14
2019-01-31T22:41:45.719Z,1.06
2019-01-31T22:44:15.678Z,0.99
2019-01-31T22:46:46.128Z,1.10
2019-01-31T22:49:16.705Z,1.03
2019-01-31T22:51:46.783Z,1.05
2019-01-31T22:54:17.166Z,1.14
2019-01-31T22:56:46.744Z,0.94
2019-01-31T22:59:16.656Z,0.95
2019-01-31T23:01:59.247Z,0.91
2019-01-31T23:04:29.097Z,0.88
2019-01-31T23:06:59.830Z,0.90
2019-01-31T23:09:29.395Z,0.92
2019-01-31T23:11:58.993Z,0.84
2019-01-31T23:14:28.793Z,0.95
2019-01-31T23:16:58.565Z,0.96
2019-01-31T23:19:30.527Z,0.95
2019-01-31T23:22:00.020Z,1.01
2019-01-31T23:24:30.779Z,1.00
2019-01-31T23:27:00.270Z,1.03
2019-01-31T23:29:30.111Z,1.03
2019-01-31T23:31:59.977Z,1.09
2019-01-31T23:34:29.916Z,0.98
2019-01-31T23:36:59.398Z,1.18
2019-01-31T23:39:29.263Z,0.93
2019-01-31T23:41:58.792Z,0.80
2019-01-31T23:44:29.009Z,0.74
2019-01-31T23:46:58.772Z,0.67
2019-01-31T23:49:28.819Z,0.76
2019-01-31T23:51:58.311Z,0.66
2019-01-31T23:54:28.589Z,0.57
2019-01-31T23:56:58.326Z,0.59
2019-01-31T23:59:27.833Z,0.54
